Terminal Aerodrome Forecast
Issued by NWS Twin Cities, MN

Home | Current Version | Previous Version | Graphics & Text | Print | Product List | Glossary On
Versions: 1 2 3 4 5 6 7 8 9 10 11 12 13 14 15 16 17 18 19 20 21 22 23 24 25 26 27 28
799
FTUS43 KMPX 250905 AAA
TAFMSP
TAF AMD
KMSP 250905Z 2509/2612 13014KT 6SM -SHRA VCTS BKN012CB BKN040
      TEMPO 2509/2512 3SM TSRA BR BKN008CB
     FM251200 15013KT 6SM -RA OVC015
     FM251430 23009KT P6SM SCT015
     FM251800 24011G17KT P6SM BKN025 OVC050
     FM252200 27018G25KT P6SM VCSH OVC025=

USA.gov is the U.S. government's official web portal to all federal, state and local government web resources and services.